createdAt,value
2023-05-09T00:00:47.231Z,92.62
2023-05-09T00:03:14.604Z,92.42
2023-05-09T00:05:42.087Z,91.82
2023-05-09T00:08:08.988Z,92.59
2023-05-09T00:10:35.956Z,93.12
2023-05-09T00:13:02.938Z,93.72
2023-05-09T00:15:29.808Z,93.68
2023-05-09T00:17:56.503Z,95.01
2023-05-09T00:20:23.295Z,94.59
2023-05-09T00:22:50.024Z,95.58
2023-05-09T00:25:16.908Z,95.45
2023-05-09T00:27:43.890Z,95.74
2023-05-09T00:30:11.035Z,95.69
2023-05-09T00:32:37.790Z,95.58
2023-05-09T00:35:05.430Z,95.50
2023-05-09T00:37:32.171Z,96.30
2023-05-09T00:39:58.876Z,95.56
2023-05-09T00:42:25.615Z,96.47
2023-05-09T00:44:52.303Z,96.78
2023-05-09T00:47:19.387Z,98.16
2023-05-09T00:49:46.181Z,97.29
2023-05-09T00:52:12.853Z,97.18
2023-05-09T00:54:39.808Z,97.80
2023-05-09T00:57:06.780Z,98.43
2023-05-09T00:59:33.480Z,99.29
2023-05-09T01:02:00.196Z,97.67
2023-05-09T01:04:26.980Z,98.65
2023-05-09T01:07:29.438Z,99.06
2023-05-09T01:10:02.224Z,98.63
2023-05-09T01:12:41.334Z,98.81
2023-05-09T01:15:19.338Z,99.77
2023-05-09T01:17:56.396Z,98.73
2023-05-09T01:20:54.497Z,98.77
2023-05-09T01:24:04.744Z,99.03
2023-05-09T01:26:46.885Z,99.02
2023-05-09T01:29:35.668Z,98.06
2023-05-09T01:32:06.487Z,99.15
2023-05-09T01:34:35.300Z,99.21
2023-05-09T01:37:04.431Z,99.79
2023-05-09T01:39:33.486Z,100.00
2023-05-09T01:42:03.205Z,100.00
2023-05-09T01:44:40.588Z,100.00
2023-05-09T01:47:08.388Z,100.00
2023-05-09T01:49:39.007Z,100.00
2023-05-09T01:52:10.597Z,100.00
2023-05-09T01:54:37.989Z,99.89
2023-05-09T01:57:05.288Z,100.00
2023-05-09T01:59:33.665Z,100.00
2023-05-09T02:02:01.073Z,100.00
2023-05-09T02:04:28.708Z,100.00
2023-05-09T02:06:56.065Z,100.00
2023-05-09T02:09:22.871Z,100.00
2023-05-09T02:11:49.687Z,100.00
2023-05-09T02:14:16.578Z,100.00
2023-05-09T02:16:43.501Z,100.00
2023-05-09T02:19:10.367Z,100.00
2023-05-09T02:21:37.048Z,100.00
2023-05-09T02:24:04.279Z,100.00
2023-05-09T02:26:31.156Z,100.00
2023-05-09T02:28:59.071Z,100.00
2023-05-09T02:31:26.358Z,100.00
2023-05-09T02:33:53.818Z,100.00
2023-05-09T02:36:21.238Z,100.00
2023-05-09T02:38:48.389Z,100.00
2023-05-09T02:41:18.159Z,100.00
2023-05-09T02:43:45.341Z,100.00
2023-05-09T02:46:12.071Z,100.00
2023-05-09T02:48:38.849Z,100.00
2023-05-09T02:51:05.584Z,100.00
2023-05-09T02:53:32.297Z,100.00
2023-05-09T02:55:59.022Z,100.00
2023-05-09T02:58:25.789Z,100.00
2023-05-09T03:00:52.460Z,100.00
2023-05-09T03:03:19.431Z,100.00
2023-05-09T03:05:46.625Z,100.00
2023-05-09T03:08:13.325Z,100.00
2023-05-09T03:10:40.079Z,100.00
2023-05-09T03:13:06.871Z,100.00
2023-05-09T03:15:33.618Z,100.00
2023-05-09T03:18:00.383Z,100.00
2023-05-09T03:20:27.760Z,100.00
2023-05-09T03:22:54.576Z,100.00
2023-05-09T03:25:21.450Z,100.00
2023-05-09T03:27:48.275Z,100.00
2023-05-09T03:30:15.227Z,100.00
2023-05-09T03:32:41.979Z,100.00
2023-05-09T03:35:09.215Z,100.00
2023-05-09T03:37:36.129Z,100.00
2023-05-09T03:40:02.874Z,100.00
2023-05-09T03:42:29.572Z,100.00
2023-05-09T03:44:56.249Z,100.00
2023-05-09T03:47:23.069Z,100.00
2023-05-09T03:49:49.762Z,100.00
2023-05-09T03:52:16.595Z,100.00
2023-05-09T03:54:43.334Z,100.00
2023-05-09T03:57:10.013Z,100.00
2023-05-09T03:59:36.688Z,100.00
2023-05-09T04:02:03.551Z,100.00
2023-05-09T04:04:30.326Z,100.00
2023-05-09T04:06:57.278Z,100.00
2023-05-09T04:09:24.031Z,100.00
2023-05-09T04:11:50.871Z,100.00
2023-05-09T04:14:18.527Z,100.00
2023-05-09T04:16:45.375Z,100.00
2023-05-09T04:19:12.396Z,100.00
2023-05-09T04:21:39.092Z,100.00
2023-05-09T04:24:06.583Z,100.00
2023-05-09T04:26:33.343Z,100.00
2023-05-09T04:29:00.049Z,100.00
2023-05-09T04:31:26.919Z,100.00
2023-05-09T04:33:53.786Z,100.00
2023-05-09T04:36:20.558Z,100.00
2023-05-09T04:38:47.306Z,100.00
2023-05-09T04:41:14.277Z,100.00
2023-05-09T04:43:40.973Z,100.00
2023-05-09T04:46:08.191Z,100.00
2023-05-09T04:48:35.961Z,100.00
2023-05-09T04:51:02.807Z,100.00
2023-05-09T04:53:29.929Z,100.00
2023-05-09T04:55:56.676Z,100.00
2023-05-09T04:58:23.410Z,100.00
2023-05-09T05:00:50.333Z,100.00
2023-05-09T05:03:18.262Z,100.00
2023-05-09T05:05:45.244Z,100.00
2023-05-09T05:08:12.122Z,100.00
2023-05-09T05:10:38.846Z,100.00
2023-05-09T05:13:05.748Z,99.10
2023-05-09T05:15:32.454Z,98.81
2023-05-09T05:17:59.197Z,97.16
2023-05-09T05:20:25.941Z,97.35
2023-05-09T05:22:55.582Z,96.26
2023-05-09T05:25:22.556Z,95.24
2023-05-09T05:27:50.386Z,94.11
2023-05-09T05:30:17.132Z,93.84
2023-05-09T05:32:44.307Z,92.26
2023-05-09T05:35:14.339Z,92.05
2023-05-09T05:37:41.936Z,91.82
2023-05-09T05:40:09.174Z,91.50
2023-05-09T05:42:36.202Z,91.07
2023-05-09T05:45:05.135Z,89.69
2023-05-09T05:47:36.683Z,89.84
2023-05-09T05:50:09.354Z,88.70
2023-05-09T05:52:36.147Z,86.92
2023-05-09T05:55:02.855Z,85.05
2023-05-09T05:57:29.571Z,85.33
2023-05-09T05:59:56.263Z,87.00
2023-05-09T06:02:23.177Z,83.91
2023-05-09T06:04:49.947Z,84.77
2023-05-09T06:07:17.543Z,84.03
2023-05-09T06:09:44.250Z,83.34
2023-05-09T06:12:12.184Z,82.89
2023-05-09T06:14:38.873Z,81.83
2023-05-09T06:17:05.854Z,81.73
2023-05-09T06:19:32.642Z,82.60
2023-05-09T06:21:59.712Z,79.79
2023-05-09T06:24:35.958Z,79.73
2023-05-09T06:27:04.125Z,79.28
2023-05-09T06:29:31.157Z,78.10
2023-05-09T06:31:58.144Z,79.81
2023-05-09T06:34:24.912Z,78.77
2023-05-09T06:36:51.622Z,78.64
2023-05-09T06:39:18.296Z,78.29
2023-05-09T06:41:45.362Z,77.53
2023-05-09T06:44:12.072Z,77.50
2023-05-09T06:46:39.760Z,78.70
2023-05-09T06:49:06.763Z,80.17
2023-05-09T06:51:33.538Z,75.04
2023-05-09T06:54:01.324Z,75.27
2023-05-09T06:56:28.141Z,76.35
2023-05-09T06:58:54.871Z,74.39
2023-05-09T07:01:21.588Z,73.45
2023-05-09T07:03:48.557Z,74.12
2023-05-09T07:06:15.375Z,73.15
2023-05-09T07:08:42.118Z,70.81
2023-05-09T07:11:08.922Z,71.49
2023-05-09T07:13:35.609Z,71.41
2023-05-09T07:16:02.375Z,70.77
2023-05-09T07:18:30.080Z,71.57
2023-05-09T07:20:56.911Z,70.62
2023-05-09T07:23:23.672Z,69.19
2023-05-09T07:25:50.451Z,69.57
2023-05-09T07:28:17.131Z,68.55
2023-05-09T07:30:44.062Z,68.22
2023-05-09T07:33:11.323Z,69.20
2023-05-09T07:35:38.034Z,69.11
2023-05-09T07:38:07.152Z,68.31
2023-05-09T07:40:36.649Z,69.05
2023-05-09T07:43:03.389Z,67.90
2023-05-09T07:45:30.150Z,67.67
2023-05-09T07:47:56.920Z,66.48
2023-05-09T07:50:23.880Z,67.42
2023-05-09T07:52:51.559Z,66.24
2023-05-09T07:55:18.603Z,67.29
2023-05-09T07:57:45.627Z,67.44
2023-05-09T08:00:13.068Z,67.96
2023-05-09T08:02:40.347Z,67.80
2023-05-09T08:05:08.359Z,68.00
2023-05-09T08:07:36.027Z,68.61
2023-05-09T08:10:03.277Z,67.73
2023-05-09T08:12:30.272Z,65.31
2023-05-09T08:14:57.264Z,63.83
2023-05-09T08:17:24.089Z,65.92
2023-05-09T08:19:50.949Z,64.81
2023-05-09T08:22:19.011Z,63.76
2023-05-09T08:24:46.747Z,62.80
2023-05-09T08:27:14.319Z,62.26
2023-05-09T08:29:41.330Z,62.72
2023-05-09T08:32:11.786Z,62.86
2023-05-09T08:34:38.803Z,62.55
2023-05-09T08:37:05.566Z,62.49
2023-05-09T08:39:35.414Z,61.85
2023-05-09T08:42:02.699Z,60.84
2023-05-09T08:44:30.308Z,62.87
2023-05-09T08:47:00.526Z,63.71
2023-05-09T08:49:28.563Z,63.96
2023-05-09T08:51:56.202Z,62.64
2023-05-09T08:54:23.877Z,63.37
2023-05-09T08:56:51.313Z,64.16
2023-05-09T08:59:19.058Z,63.58
2023-05-09T09:01:46.081Z,64.33
2023-05-09T09:04:12.925Z,63.80
2023-05-09T09:06:40.819Z,64.68
2023-05-09T09:09:09.796Z,64.32
2023-05-09T09:11:37.179Z,63.80
2023-05-09T09:14:13.758Z,65.00
2023-05-09T09:16:42.039Z,62.76
2023-05-09T09:19:13.881Z,63.46
2023-05-09T09:21:47.681Z,62.21
2023-05-09T09:24:14.827Z,61.24
2023-05-09T09:26:49.293Z,60.59
2023-05-09T09:29:17.607Z,61.27
2023-05-09T09:31:46.539Z,61.06
2023-05-09T09:34:15.698Z,59.22
2023-05-09T09:36:42.484Z,58.86
2023-05-09T09:39:09.693Z,60.04
2023-05-09T09:41:40.150Z,58.37
2023-05-09T09:44:18.183Z,57.39
2023-05-09T09:46:53.912Z,56.74
2023-05-09T09:49:26.457Z,57.75
2023-05-09T09:51:57.672Z,58.34
2023-05-09T09:54:28.025Z,56.73
2023-05-09T09:56:55.357Z,56.09
2023-05-09T09:59:25.516Z,55.34
2023-05-09T10:02:08.369Z,56.73
2023-05-09T10:04:37.024Z,57.72
2023-05-09T10:07:09.042Z,57.06
2023-05-09T10:09:38.263Z,57.65
2023-05-09T10:12:06.671Z,57.37
2023-05-09T10:14:35.641Z,57.27
2023-05-09T10:17:04.146Z,56.12
2023-05-09T10:19:31.423Z,57.91
2023-05-09T10:22:01.356Z,57.55
2023-05-09T10:25:04.491Z,58.64
2023-05-09T10:27:33.428Z,59.04
2023-05-09T10:30:14.291Z,57.90
2023-05-09T10:33:11.704Z,57.36
2023-05-09T10:35:45.411Z,57.85
2023-05-09T10:38:13.060Z,55.97
2023-05-09T10:40:42.573Z,55.96
2023-05-09T10:43:09.260Z,54.89
2023-05-09T10:45:36.351Z,54.54
2023-05-09T10:48:08.012Z,54.99
2023-05-09T10:50:37.007Z,54.80
2023-05-09T10:53:14.501Z,55.20
2023-05-09T10:56:07.730Z,54.56
2023-05-09T10:58:37.616Z,53.48
2023-05-09T11:01:05.212Z,55.05
2023-05-09T11:03:59.235Z,53.92
2023-05-09T11:06:51.804Z,53.86
2023-05-09T11:09:37.369Z,53.32
2023-05-09T11:12:12.435Z,51.27
2023-05-09T11:14:49.097Z,52.27
2023-05-09T11:17:40.461Z,51.33
2023-05-09T11:20:09.312Z,51.81
2023-05-09T11:22:45.273Z,51.35
2023-05-09T11:25:14.399Z,51.62
2023-05-09T11:27:43.751Z,51.20
2023-05-09T11:30:18.230Z,51.33
2023-05-09T11:32:55.501Z,51.85
2023-05-09T11:35:23.796Z,50.79
2023-05-09T11:37:53.154Z,50.56
2023-05-09T11:40:21.752Z,50.76
2023-05-09T11:42:50.477Z,52.04
2023-05-09T11:45:17.961Z,47.46
2023-05-09T11:47:46.080Z,48.47
2023-05-09T11:50:13.890Z,50.48
2023-05-09T11:52:41.858Z,51.62
2023-05-09T11:55:12.404Z,48.42
2023-05-09T11:57:46.109Z,48.31
2023-05-09T12:00:14.434Z,47.88
2023-05-09T12:02:44.432Z,49.09
2023-05-09T12:05:13.548Z,49.39
2023-05-09T12:07:41.511Z,48.28
2023-05-09T12:10:09.576Z,47.63
2023-05-09T12:12:37.372Z,48.33
2023-05-09T12:15:08.359Z,48.54
2023-05-09T12:17:36.003Z,48.54
2023-05-09T12:20:06.114Z,47.33
2023-05-09T12:22:33.705Z,47.28
2023-05-09T12:25:05.838Z,47.71
2023-05-09T12:27:33.351Z,47.66
2023-05-09T12:30:09.213Z,48.17
2023-05-09T12:32:36.951Z,47.75
2023-05-09T12:35:03.888Z,47.83
2023-05-09T12:37:32.976Z,49.18
2023-05-09T12:40:15.648Z,48.83
2023-05-09T12:42:46.412Z,49.65
2023-05-09T12:45:14.120Z,47.26
2023-05-09T12:47:42.502Z,47.09
2023-05-09T12:50:12.016Z,46.59
2023-05-09T12:52:50.574Z,45.69
2023-05-09T12:55:25.579Z,46.25
2023-05-09T12:58:03.794Z,48.13
2023-05-09T13:00:44.404Z,45.56
2023-05-09T13:03:25.614Z,45.69
2023-05-09T13:05:57.482Z,45.78
2023-05-09T13:08:24.185Z,44.62
2023-05-09T13:10:53.665Z,44.91
2023-05-09T13:13:28.775Z,45.60
2023-05-09T13:15:55.827Z,45.26
2023-05-09T13:18:24.459Z,45.14
2023-05-09T13:20:52.206Z,45.00
2023-05-09T13:23:19.178Z,43.71
2023-05-09T13:25:46.027Z,44.83
2023-05-09T13:28:12.935Z,44.21
2023-05-09T13:30:39.792Z,43.94
2023-05-09T13:33:23.915Z,44.48
2023-05-09T13:35:52.257Z,44.60
2023-05-09T13:38:18.955Z,44.27
2023-05-09T13:40:45.695Z,43.62
2023-05-09T13:43:12.401Z,44.68
2023-05-09T13:45:39.419Z,42.72
2023-05-09T13:48:06.506Z,43.61
2023-05-09T13:50:34.100Z,42.97
2023-05-09T13:53:00.839Z,42.94
2023-05-09T13:55:28.004Z,44.06
2023-05-09T13:57:55.307Z,43.34
2023-05-09T14:00:22.474Z,42.43
2023-05-09T14:02:49.269Z,42.77
2023-05-09T14:05:17.143Z,44.25
2023-05-09T14:07:44.071Z,44.18
2023-05-09T14:10:12.297Z,44.13
2023-05-09T14:12:40.533Z,43.21
2023-05-09T14:15:12.265Z,42.53
2023-05-09T14:17:40.161Z,43.66
2023-05-09T14:20:08.450Z,43.67
2023-05-09T14:22:35.203Z,43.51
2023-05-09T14:25:02.025Z,43.36
2023-05-09T14:27:28.744Z,42.90
2023-05-09T14:29:55.601Z,43.99
2023-05-09T14:32:22.464Z,42.13
2023-05-09T14:34:52.257Z,44.14
2023-05-09T14:37:18.983Z,43.70
2023-05-09T14:39:45.915Z,43.17
2023-05-09T14:42:14.341Z,42.74
2023-05-09T14:44:41.979Z,43.00
2023-05-09T14:47:09.938Z,42.74
2023-05-09T14:49:37.314Z,42.94
2023-05-09T14:52:04.102Z,42.32
2023-05-09T14:54:30.979Z,41.33
2023-05-09T14:56:59.791Z,42.46
2023-05-09T14:59:26.516Z,41.25
2023-05-09T15:01:53.246Z,42.02
2023-05-09T15:04:20.011Z,41.75
2023-05-09T15:06:46.880Z,41.66
2023-05-09T15:09:14.269Z,40.36
2023-05-09T15:11:48.211Z,41.10
2023-05-09T15:14:17.038Z,40.69
2023-05-09T15:16:44.073Z,41.46
2023-05-09T15:19:11.086Z,39.46
2023-05-09T15:21:37.994Z,39.98
2023-05-09T15:24:08.182Z,40.84
2023-05-09T15:26:34.927Z,39.77
2023-05-09T15:29:01.663Z,39.90
2023-05-09T15:31:32.941Z,39.67
2023-05-09T15:34:00.738Z,39.37
2023-05-09T15:36:29.700Z,38.46
2023-05-09T15:38:56.530Z,39.67
2023-05-09T15:41:23.577Z,39.48
2023-05-09T15:43:50.557Z,39.84
2023-05-09T15:46:17.339Z,39.14
2023-05-09T15:48:44.492Z,39.10
2023-05-09T15:51:11.594Z,39.77
2023-05-09T15:53:38.374Z,40.36
2023-05-09T15:56:05.427Z,40.30
2023-05-09T15:58:32.274Z,39.71
2023-05-09T16:00:59.029Z,38.89
2023-05-09T16:03:25.883Z,40.30
2023-05-09T16:05:53.217Z,39.74
2023-05-09T16:08:20.113Z,39.98
2023-05-09T16:10:49.245Z,40.73
2023-05-09T16:13:19.086Z,39.76
2023-05-09T16:15:48.188Z,40.60
2023-05-09T16:18:15.000Z,40.88
2023-05-09T16:20:42.249Z,40.76
2023-05-09T16:23:09.043Z,40.94
2023-05-09T16:25:35.728Z,39.89
2023-05-09T16:28:02.625Z,38.82
2023-05-09T16:30:29.748Z,38.87
2023-05-09T16:32:56.665Z,38.68
2023-05-09T16:35:23.547Z,39.29
2023-05-09T16:37:50.215Z,39.61
2023-05-09T16:40:17.233Z,39.29
2023-05-09T16:42:44.153Z,39.38
2023-05-09T16:45:11.323Z,39.50
2023-05-09T16:47:38.003Z,39.51
2023-05-09T16:50:05.332Z,39.42
2023-05-09T16:52:32.086Z,40.22
2023-05-09T16:54:59.608Z,40.82
2023-05-09T16:57:26.316Z,41.03
2023-05-09T16:59:53.704Z,41.78
2023-05-09T17:02:20.499Z,41.77
2023-05-09T17:04:47.536Z,42.22
2023-05-09T17:07:14.764Z,42.72
2023-05-09T17:09:41.825Z,42.62
2023-05-09T17:12:14.984Z,42.98
2023-05-09T17:14:41.731Z,42.93
2023-05-09T17:17:08.403Z,43.73
2023-05-09T17:19:35.157Z,44.01
2023-05-09T17:22:04.628Z,44.12
2023-05-09T17:24:32.649Z,44.43
2023-05-09T17:27:00.236Z,44.03
2023-05-09T17:29:29.535Z,43.88
2023-05-09T17:32:02.464Z,45.07
2023-05-09T17:34:29.743Z,45.53
2023-05-09T17:36:56.763Z,44.72
2023-05-09T17:39:24.102Z,44.21
2023-05-09T17:41:50.860Z,44.64
2023-05-09T17:44:17.591Z,43.86
2023-05-09T17:46:44.483Z,44.13
2023-05-09T17:49:14.248Z,44.23
2023-05-09T17:51:41.364Z,43.81
2023-05-09T17:54:08.360Z,44.03
2023-05-09T17:56:35.184Z,44.84
2023-05-09T17:59:02.158Z,46.18
2023-05-09T18:01:29.238Z,45.49
2023-05-09T18:03:56.808Z,46.43
2023-05-09T18:06:23.757Z,46.84
2023-05-09T18:08:50.441Z,48.77
2023-05-09T18:11:17.156Z,49.66
2023-05-09T18:13:43.904Z,50.72
2023-05-09T18:16:10.876Z,50.18
2023-05-09T18:18:37.613Z,50.30
2023-05-09T18:21:05.618Z,51.69
2023-05-09T18:23:33.367Z,53.32
2023-05-09T18:26:00.226Z,53.65
2023-05-09T18:28:27.687Z,53.88
2023-05-09T18:30:55.856Z,52.90
2023-05-09T18:33:26.823Z,52.96
2023-05-09T18:35:54.745Z,54.87
2023-05-09T18:38:22.047Z,56.02
2023-05-09T18:40:48.886Z,56.36
2023-05-09T18:43:17.392Z,57.85
2023-05-09T18:45:45.320Z,58.17
2023-05-09T18:48:12.641Z,57.90
2023-05-09T18:50:39.668Z,59.84
2023-05-09T18:53:06.403Z,60.78
2023-05-09T18:55:33.125Z,59.04
2023-05-09T18:57:59.884Z,62.18
2023-05-09T19:00:26.771Z,61.97
2023-05-09T19:02:53.529Z,62.13
2023-05-09T19:05:20.762Z,62.08
2023-05-09T19:07:47.711Z,62.66
2023-05-09T19:10:18.173Z,62.56
2023-05-09T19:12:46.314Z,62.59
2023-05-09T19:15:13.080Z,62.29
2023-05-09T19:17:39.796Z,64.14
2023-05-09T19:20:07.254Z,64.44
2023-05-09T19:22:35.401Z,64.57
2023-05-09T19:25:02.249Z,65.73
2023-05-09T19:27:28.967Z,65.44
2023-05-09T19:29:55.679Z,66.45
2023-05-09T19:32:22.421Z,67.10
2023-05-09T19:34:49.213Z,68.46
2023-05-09T19:37:15.985Z,66.10
2023-05-09T19:39:42.970Z,65.47
2023-05-09T19:42:09.986Z,65.11
2023-05-09T19:44:36.791Z,64.49
2023-05-09T19:47:05.483Z,63.96
2023-05-09T19:49:32.969Z,64.02
2023-05-09T19:51:59.788Z,64.16
2023-05-09T19:54:27.458Z,65.70
2023-05-09T19:56:54.251Z,65.24
2023-05-09T19:59:20.942Z,66.08
2023-05-09T20:01:47.742Z,67.27
2023-05-09T20:04:14.494Z,65.51
2023-05-09T20:06:41.481Z,66.76
2023-05-09T20:09:08.242Z,66.90
2023-05-09T20:11:34.948Z,66.78
2023-05-09T20:14:01.620Z,66.28
2023-05-09T20:16:28.808Z,67.80
2023-05-09T20:18:55.938Z,67.42
2023-05-09T20:21:22.640Z,68.13
2023-05-09T20:23:49.638Z,66.84
2023-05-09T20:26:16.438Z,64.92
2023-05-09T20:28:43.198Z,66.00
2023-05-09T20:31:09.964Z,67.95
2023-05-09T20:33:36.759Z,67.48
2023-05-09T20:36:03.714Z,66.30
2023-05-09T20:38:30.473Z,66.32
2023-05-09T20:40:57.256Z,66.48
2023-05-09T20:43:23.999Z,66.74
2023-05-09T20:45:52.129Z,67.68
2023-05-09T20:48:19.505Z,66.78
2023-05-09T20:50:46.656Z,65.36
2023-05-09T20:53:13.316Z,63.86
2023-05-09T20:55:39.996Z,63.54
2023-05-09T20:58:06.736Z,64.34
2023-05-09T21:00:33.788Z,63.17
2023-05-09T21:03:00.834Z,64.75
2023-05-09T21:05:27.628Z,63.55
2023-05-09T21:07:54.284Z,65.34
2023-05-09T21:10:21.037Z,66.36
2023-05-09T21:12:47.744Z,64.22
2023-05-09T21:15:14.432Z,63.31
2023-05-09T21:17:41.303Z,63.40
2023-05-09T21:20:09.139Z,63.30
2023-05-09T21:22:36.183Z,61.93
2023-05-09T21:25:02.901Z,62.63
2023-05-09T21:27:32.722Z,65.02
2023-05-09T21:29:59.475Z,63.30
2023-05-09T21:32:28.850Z,61.01
2023-05-09T21:34:55.702Z,62.60
2023-05-09T21:37:22.438Z,63.51
2023-05-09T21:39:49.175Z,63.09
2023-05-09T21:42:16.493Z,61.70
2023-05-09T21:44:43.468Z,61.27
2023-05-09T21:47:11.899Z,59.75
2023-05-09T21:49:39.058Z,58.19
2023-05-09T21:52:06.686Z,58.00
2023-05-09T21:54:33.468Z,58.29
2023-05-09T21:57:00.252Z,58.40
2023-05-09T21:59:27.218Z,57.76
2023-05-09T22:01:53.996Z,56.93
2023-05-09T22:04:21.276Z,55.33
2023-05-09T22:06:48.077Z,55.18
2023-05-09T22:09:15.396Z,53.52
2023-05-09T22:11:42.145Z,54.07
2023-05-09T22:14:10.478Z,54.83
2023-05-09T22:16:38.463Z,57.38
2023-05-09T22:19:05.433Z,57.51
2023-05-09T22:21:32.702Z,55.53
2023-05-09T22:23:59.372Z,56.16
2023-05-09T22:26:26.446Z,54.43
2023-05-09T22:28:53.242Z,56.48
2023-05-09T22:31:20.111Z,56.87
2023-05-09T22:33:46.934Z,54.79
2023-05-09T22:36:14.727Z,55.63
2023-05-09T22:38:41.450Z,54.57
2023-05-09T22:41:08.155Z,54.57
2023-05-09T22:43:39.207Z,53.76
2023-05-09T22:46:06.701Z,53.49
2023-05-09T22:48:33.536Z,53.70
2023-05-09T22:51:00.237Z,54.11
2023-05-09T22:53:26.930Z,54.40
2023-05-09T22:55:54.946Z,55.50
2023-05-09T22:58:21.635Z,55.92
2023-05-09T23:00:48.379Z,56.47
2023-05-09T23:03:15.167Z,57.03
2023-05-09T23:05:43.022Z,56.57
2023-05-09T23:08:10.032Z,57.60
2023-05-09T23:10:36.719Z,58.47
2023-05-09T23:13:05.002Z,60.49
2023-05-09T23:15:31.799Z,61.23
2023-05-09T23:17:58.698Z,60.33
2023-05-09T23:20:26.152Z,60.31
2023-05-09T23:22:52.892Z,61.87
2023-05-09T23:25:19.578Z,62.75
2023-05-09T23:27:47.148Z,63.51
2023-05-09T23:30:14.256Z,63.54
2023-05-09T23:32:41.212Z,64.04
2023-05-09T23:35:08.497Z,65.23
2023-05-09T23:37:35.224Z,66.85
2023-05-09T23:40:04.079Z,66.67
2023-05-09T23:42:31.168Z,67.76
2023-05-09T23:44:57.876Z,67.95
2023-05-09T23:47:24.688Z,68.36
2023-05-09T23:49:51.404Z,69.59
2023-05-09T23:52:18.198Z,70.87
2023-05-09T23:54:44.917Z,70.68
2023-05-09T23:57:11.610Z,72.17
2023-05-09T23:59:38.368Z,72.68
